Date,TemperatureHighF,TemperatureAvgF,TemperatureLowF,DewpointHighF,DewpointAvgF,DewpointLowF,HumidityHigh,HumidityAvg,HumidityLow,PressureMaxIn,PressureMinIn,WindSpeedMaxMPH,WindSpeedAvgMPH,GustSpeedMaxMPH,PrecipitationSumIn
2013-1-1,73.7,68.6,61.8,67.8,65.1,60.4,95,89,80,30.12,29.97,4,2,0,0.01
2013-1-2,65.8,55.2,49.4,64.3,51.4,45.4,95,87,76,30.18,29.98,3,1,0,0.01
2013-1-3,49.5,45.9,42.7,46.1,42.6,36.1,94,88,77,30.36,30.17,3,1,0,0.37
2013-1-4,56.6,47.3,39.5,44.0,38.6,33.4,84,72,55,30.42,30.32,2,0,0,0.00
2013-1-5,53.9,50.0,45.7,46.4,40.2,33.4,81,69,57,30.38,30.24,1,0,0,0.00
2013-1-6,54.1,51.5,48.8,48.0,45.1,42.4,88,79,69,30.29,30.17,2,0,0,0.00
2013-1-7,61.4,51.4,43.8,47.3,43.4,40.6,90,75,55,30.33,30.21,1,0,0,0.00
2013-1-8,64.7,57.7,50.4,59.7,52.7,42.9,90,83,74,30.28,30.17,1,0,0,0.00
2013-1-9,68.3,65.9,60.6,66.5,63.6,58.1,96,92,84,30.27,30.19,2,1,0,0.00
2013-1-10,70.8,66.8,64.1,68.5,65.4,62.6,97,95,91,30.28,30.08,4,1,0,0.58
2013-1-11,75.5,68.8,62.9,70.4,66.7,61.7,97,93,84,30.18,30.07,4,1,0,0.00
2013-1-12,77.0,69.7,65.5,70.5,67.4,64.3,97,93,80,30.15,30.01,3,1,0,0.01
2013-1-13,74.8,70.7,68.6,70.5,68.7,67.1,97,94,86,30.05,29.97,4,2,0,0.00
2013-1-14,77.8,71.6,69.4,71.8,69.3,68.0,97,93,80,30.12,30.02,3,1,0,0.01
2013-1-15,76.5,70.8,61.9,71.6,68.6,60.3,97,93,84,30.07,29.94,5,2,0,0.10
2013-1-16,71.5,60.8,48.5,70.2,59.5,47.1,96,95,93,30.03,29.94,3,1,0,0.49
2013-1-17,50.1,45.9,41.3,47.2,41.0,37.1,95,83,72,30.32,30.02,4,2,0,0.01
2013-1-18,59.9,49.6,42.1,43.2,40.2,37.6,86,71,47,30.52,30.31,3,1,0,0.00
2013-1-19,63.5,53.8,45.5,51.2,44.9,34.8,91,73,57,30.41,30.25,1,0,0,0.00
2013-1-20,66.3,55.5,49.6,51.9,49.2,46.0,93,81,49,30.29,30.13,2,0,0,0.00
2013-1-21,65.8,56.7,50.8,51.6,48.9,44.6,92,76,50,30.23,30.12,1,0,0,0.00
2013-1-22,60.7,52.1,44.7,44.5,39.3,33.5,79,63,42,30.38,30.20,2,1,0,0.00
2013-1-23,67.2,54.8,41.9,54.1,47.3,36.5,89,77,54,30.43,30.31,2,0,0,0.00
2013-1-24,71.7,61.0,53.5,59.8,55.8,51.1,95,84,64,30.36,30.24,3,0,0,0.00
2013-1-25,73.6,61.4,52.6,63.0,56.9,50.6,96,86,63,30.32,30.18,3,0,0,0.00
2013-1-26,74.6,64.6,57.9,65.1,60.4,56.2,95,87,69,30.27,30.18,3,0,0,0.01
2013-1-27,72.2,62.6,55.2,63.3,58.6,53.5,95,87,72,30.34,30.26,2,0,0,0.01
2013-1-28,72.8,66.1,59.7,66.2,63.2,58.0,96,90,78,30.32,30.18,2,0,0,0.00
2013-1-29,77.5,71.5,67.6,70.9,68.6,65.8,96,91,80,30.18,29.92,4,2,0,0.06
2013-1-30,75.7,65.2,48.1,72.2,61.7,37.1,96,89,65,30.11,29.67,7,4,0,0.29
2013-1-31,59.6,50.9,43.3,43.8,36.4,31.3,77,59,36,30.33,30.11,3,1,0,0.01
2013-2-1,62.7,53.8,48.1,44.9,40.1,30.5,73,60,47,30.41,30.31,2,1,0,0.00
2013-2-2,65.6,53.0,41.6,53.4,40.8,25.3,89,64,49,30.39,30.18,2,0,0,0.00
2013-2-3,68.3,57.8,51.1,55.1,48.6,39.9,90,73,40,30.27,30.13,3,0,0,0.00
2013-2-4,67.0,58.3,50.4,56.2,49.4,39.9,88,73,59,30.14,29.99,1,0,0,0.00
2013-2-5,70.0,61.9,56.6,64.4,59.0,54.9,96,90,78,30.05,29.96,2,0,0,0.41
2013-2-6,71.7,61.7,56.9,61.6,58.6,55.8,97,90,69,30.17,30.02,2,0,0,0.00
2013-2-7,73.1,64.5,60.1,66.5,61.5,57.8,97,90,72,30.05,29.76,7,1,0,1.35
2013-2-8,70.8,61.8,56.7,63.0,58.4,53.5,96,89,75,30.15,29.95,2,0,0,0.00
2013-2-9,65.4,57.7,49.5,56.2,52.1,46.0,91,82,66,30.28,30.15,2,0,0,0.00
2013-2-10,70.9,65.8,56.5,67.8,63.0,53.5,95,91,82,30.16,29.98,5,2,0,0.03
2013-2-11,79.3,66.5,60.0,72.6,64.4,57.4,96,93,72,30.10,30.01,4,2,0,0.92
2013-2-12,70.4,65.2,59.8,69.2,63.3,57.8,96,93,88,30.05,29.78,5,2,0,0.05
2013-2-13,69.0,58.8,50.2,67.8,54.4,44.8,96,86,66,30.07,29.79,3,1,0,0.08
2013-2-14,56.7,49.3,43.7,46.4,43.3,40.6,91,80,65,30.17,30.03,2,1,0,0.00
2013-2-15,67.4,54.3,43.7,49.0,46.4,41.2,96,77,43,30.18,30.04,2,0,0,0.01
2013-2-16,57.1,51.2,43.4,48.1,35.1,25.5,80,55,34,30.30,30.06,3,2,0,0.00
2013-2-17,57.3,45.1,37.9,36.5,29.0,21.4,77,55,30,30.42,30.29,2,1,0,0.00
2013-2-18,66.8,58.2,44.2,56.0,46.2,36.4,79,65,50,30.33,30.08,5,2,0,0.00
2013-2-19,68.3,61.8,51.7,62.0,53.2,36.0,95,75,52,30.21,30.01,5,1,0,0.49
2013-2-20,57.2,49.4,43.4,41.8,34.5,28.7,86,58,34,30.28,30.10,3,0,0,0.00
2013-2-21,68.8,58.4,43.2,64.4,51.4,35.7,95,78,59,30.12,29.92,3,1,0,0.00
2013-2-22,69.2,67.0,64.8,68.5,66.0,63.6,98,96,95,30.00,29.88,4,1,0,2.33
2013-2-23,70.2,62.0,58.4,69.6,61.2,57.6,98,97,97,29.96,29.79,3,0,0,0.60
2013-2-24,70.2,61.1,54.8,60.7,57.6,53.6,97,89,69,30.00,29.83,1,0,0,0.93
2013-2-25,66.6,62.8,59.7,65.3,61.5,58.6,97,96,86,29.93,29.55,3,1,0,3.41
2013-2-26,66.8,58.9,55.2,65.9,51.0,46.7,97,76,60,29.93,29.54,4,2,0,0.10
2013-2-27,66.3,56.6,49.0,52.7,46.4,41.4,88,70,47,30.05,29.92,4,1,0,0.00
2013-2-28,62.3,55.0,49.0,52.2,41.8,36.9,88,62,41,30.09,29.98,3,1,0,0.00
2013-3-1,56.7,50.0,44.7,43.6,38.8,34.7,76,66,50,30.15,30.02,3,1,0,0.00
2013-3-2,53.2,44.4,39.1,36.3,32.4,29.0,78,63,45,30.19,30.07,3,2,0,0.00
2013-3-3,54.2,44.9,36.7,38.9,31.0,26.4,77,59,39,30.23,30.13,2,1,0,0.00
2013-3-4,68.4,55.4,39.5,58.5,47.3,36.4,94,76,50,30.23,30.03,3,1,0,0.00
2013-3-5,76.0,64.2,52.4,64.2,57.9,43.1,95,81,65,30.14,29.94,5,1,0,0.00
2013-3-6,61.9,52.3,45.1,43.9,36.9,31.5,76,57,35,30.28,30.14,3,1,0,0.00
2013-3-7,63.9,50.7,41.2,48.0,39.8,33.6,85,67,40,30.36,30.22,2,1,0,0.00
2013-3-8,73.3,56.2,46.1,50.8,44.8,38.1,88,68,35,30.33,30.19,2,0,0,0.00
2013-3-9,68.8,59.1,48.5,59.8,53.3,46.2,95,82,69,30.24,30.08,3,1,0,0.00
2013-3-10,72.9,65.6,61.6,63.7,60.3,54.3,92,83,73,30.12,29.98,4,2,0,0.00
2013-3-11,72.2,60.9,50.6,65.9,58.1,46.9,95,91,80,29.98,29.83,4,2,0,1.16
2013-3-12,66.0,54.3,45.0,49.4,43.9,39.3,87,69,45,30.19,29.96,3,1,0,0.00
2013-3-13,68.5,58.5,51.1,48.7,41.8,34.1,72,55,31,30.34,30.19,2,1,0,0.00
2013-3-14,65.5,53.3,43.5,44.2,36.2,30.0,80,54,30,30.45,30.29,3,1,0,0.00
2013-3-15,72.5,59.1,46.7,54.2,49.2,41.9,94,72,39,30.33,30.17,5,1,0,0.00
2013-3-16,78.8,65.9,56.2,61.8,58.6,53.4,94,79,55,30.17,30.02,3,1,0,0.00
2013-3-17,72.8,64.8,58.6,66.4,62.2,57.1,96,92,80,30.04,29.94,2,0,0,0.00
2013-3-18,79.1,69.7,64.7,70.8,66.6,62.8,95,90,75,29.96,29.81,3,1,0,0.01
2013-3-19,80.3,67.6,60.7,68.3,60.7,52.9,96,80,51,30.05,29.88,2,0,0,0.02
2013-3-20,66.4,61.5,55.0,52.5,43.5,39.3,66,52,44,30.09,29.96,2,1,0,0.00
2013-3-21,67.2,56.4,49.6,43.6,37.7,27.7,72,51,25,30.09,29.92,3,1,0,0.00
2013-3-22,70.3,60.9,52.3,58.0,49.8,40.0,84,67,52,29.99,29.89,4,1,0,0.00
2013-3-23,70.1,66.0,63.9,67.3,62.2,49.7,96,88,59,29.90,29.62,3,1,0,0.38
2013-3-24,82.0,70.5,54.0,69.9,62.5,40.6,97,77,52,29.91,29.57,5,2,0,0.06
2013-3-25,63.9,52.4,43.0,42.1,34.0,27.9,72,52,29,30.22,29.91,3,2,0,0.00
2013-3-26,58.5,48.9,40.6,35.4,31.7,27.9,68,52,36,30.37,30.22,3,2,0,0.00
2013-3-27,62.4,50.0,41.2,43.6,35.6,29.9,78,59,35,30.45,30.29,2,1,0,0.00
2013-3-28,71.4,56.1,45.2,46.1,42.5,37.1,86,63,34,30.38,30.26,3,1,0,0.00
2013-3-29,75.6,60.1,49.4,55.0,49.4,33.5,91,72,26,30.37,30.23,3,0,0,0.00
2013-3-30,80.2,65.9,53.7,62.5,58.2,51.9,96,78,50,30.23,30.07,3,0,0,0.00
2013-3-31,81.9,70.2,61.2,67.7,64.6,59.2,96,83,57,30.09,29.92,4,1,0,0.00
2013-4-1,77.0,68.6,62.1,65.3,61.6,57.5,93,79,62,30.05,29.92,2,0,0,0.00
2013-4-2,81.2,68.3,58.8,62.6,57.6,50.7,93,72,41,30.14,30.03,2,0,0,0.00
2013-4-3,65.3,62.1,57.0,62.8,59.3,55.6,96,91,78,30.07,29.80,3,1,0,1.21
2013-4-4,76.1,65.5,61.1,65.5,61.5,57.6,95,87,68,29.96,29.85,3,1,0,0.00
2013-4-5,65.0,59.8,55.0,57.4,53.2,51.8,92,79,64,30.11,29.92,3,1,0,0.00
2013-4-6,76.4,63.4,53.7,59.6,52.8,48.7,90,70,47,30.19,30.09,3,1,0,0.00
2013-4-7,76.2,65.7,54.8,67.2,61.4,52.5,94,86,72,30.16,30.05,3,0,0,0.00
2013-4-8,80.9,71.6,66.2,69.8,66.6,63.9,95,85,67,30.12,30.00,3,1,0,0.00
2013-4-9,81.2,72.3,68.0,69.2,67.0,65.0,95,84,64,30.13,29.99,3,1,0,0.00
2013-4-10,83.0,72.8,66.7,71.9,67.9,64.3,94,85,69,30.08,29.91,3,1,0,0.00
2013-4-11,82.0,73.6,68.1,74.6,70.8,66.8,96,91,78,29.91,29.62,6,2,0,1.08
2013-4-12,77.8,66.5,58.2,66.5,55.9,51.4,96,72,43,29.98,29.75,3,1,0,0.00
2013-4-13,82.6,69.7,58.8,60.0,54.6,49.5,82,60,38,30.06,29.91,3,0,0,0.00
2013-4-14,68.5,65.3,60.3,65.9,62.8,58.9,96,92,77,29.95,29.68,5,1,0,1.24
2013-4-15,79.3,71.1,65.1,70.7,67.6,63.3,96,89,74,30.06,29.85,2,0,0,0.00
2013-4-16,84.3,74.1,66.7,71.7,68.8,65.2,96,84,65,30.14,30.04,3,1,0,0.00
2013-4-17,83.0,73.7,68.6,71.9,69.2,67.1,96,86,66,30.15,30.03,3,1,0,0.01
2013-4-18,82.8,74.2,69.2,73.6,70.2,65.7,95,88,73,30.03,29.89,3,1,0,0.00
2013-4-19,74.9,62.5,52.6,73.4,59.9,49.3,96,91,84,30.17,29.84,3,2,0,0.35
2013-4-20,71.4,59.8,50.1,49.6,45.8,42.3,87,62,40,30.26,30.13,3,1,0,0.00
2013-4-21,78.2,65.3,55.2,55.8,52.2,47.3,83,64,43,30.22,30.12,3,0,0,0.00
2013-4-22,78.7,68.9,62.6,65.0,59.9,52.0,86,73,62,30.16,30.07,2,0,0,0.00
2013-4-23,80.9,70.5,65.0,65.2,63.4,60.7,91,79,58,30.15,30.07,3,1,0,0.00
2013-4-24,80.5,70.2,63.1,71.2,67.0,61.1,96,90,72,30.15,30.05,3,0,0,0.15
2013-4-25,81.7,69.8,60.2,67.4,62.1,52.1,96,78,57,30.27,30.12,2,1,0,0.01
2013-4-26,85.7,70.9,60.8,61.4,52.4,42.5,88,55,23,30.31,30.22,3,1,0,0.00
2013-4-27,84.3,72.7,62.1,72.4,67.5,60.1,95,85,66,30.23,30.07,4,1,0,0.00
2013-4-28,85.6,75.6,69.9,72.3,70.2,67.0,96,84,62,30.11,29.97,3,0,0,0.00
2013-4-29,88.6,74.1,68.5,71.8,67.5,64.6,93,81,53,30.01,29.91,4,0,0,0.00
2013-4-30,82.3,74.5,68.7,72.1,69.2,65.4,95,84,69,29.99,29.91,2,1,0,0.00
2013-5-1,76.2,72.1,70.3,70.5,68.3,66.4,95,88,76,29.98,29.88,3,1,0,0.11
2013-5-2,79.1,70.8,66.7,70.3,66.3,63.8,94,86,71,30.01,29.90,3,1,0,0.36
2013-5-3,72.0,68.0,55.7,68.1,64.9,53.7,95,90,80,29.93,29.82,3,0,0,0.15
2013-5-4,71.5,60.3,50.5,53.8,47.6,44.3,95,66,38,29.95,29.86,5,2,0,0.16
2013-5-5,77.8,63.0,50.1,63.6,49.9,44.0,91,65,38,30.00,29.83,4,1,0,0.06
2013-5-6,57.0,56.7,56.4,47.6,47.2,46.7,72,71,69,29.99,29.99,2,1,0,0.00
2013-5-15,89.6,74.6,61.8,66.5,61.0,53.1,95,66,31,30.24,30.06,4,1,0,0.00
2013-5-16,85.6,75.7,70.3,73.2,69.7,64.7,93,82,65,30.09,30.01,3,1,0,0.00
2013-5-17,87.4,77.1,71.5,74.2,71.4,68.5,93,83,64,30.10,30.00,3,1,0,0.00
2013-5-18,87.1,78.3,72.4,74.6,71.7,69.7,94,81,65,30.12,30.03,3,1,0,0.00
2013-5-19,86.6,78.2,72.5,74.6,72.3,70.0,93,83,65,30.08,30.01,2,1,0,0.00
2013-5-20,89.3,79.6,73.6,76.6,73.4,71.1,95,82,63,30.08,29.98,3,1,0,0.00
2013-5-21,89.7,79.4,72.3,75.3,72.4,70.2,94,80,60,30.03,29.91,3,1,0,0.00
2013-5-22,88.2,78.1,71.0,75.7,72.6,69.2,96,84,63,30.02,29.90,3,0,0,0.00
2013-5-23,93.4,81.1,73.4,76.0,72.6,64.8,93,77,42,30.05,29.95,4,1,0,0.00
2013-5-24,93.3,82.9,75.7,74.5,68.4,59.3,89,64,44,30.16,30.02,2,0,0,0.00
2013-5-25,90.8,77.0,67.2,64.2,59.3,54.6,85,56,33,30.25,30.14,3,1,0,0.00
2013-5-26,89.9,77.1,66.8,74.3,69.0,62.7,94,78,50,30.24,30.13,3,1,0,0.00
2013-5-27,89.0,78.4,69.1,74.6,70.0,65.0,93,76,58,30.19,30.09,3,1,0,0.00
2013-5-28,87.6,78.6,68.8,75.7,71.0,64.5,89,78,65,30.12,30.06,4,1,0,0.00
2013-5-29,89.0,80.3,74.4,76.7,73.6,70.7,90,81,65,30.10,30.02,4,1,0,0.00
2013-5-30,88.6,81.2,76.8,76.3,74.0,71.9,90,79,64,30.09,30.02,4,2,0,0.00
2013-5-31,89.3,80.6,77.0,76.4,74.2,73.1,89,81,65,30.08,30.00,4,2,0,0.00
2013-6-1,88.8,80.8,76.9,78.1,75.3,72.9,91,84,70,30.04,29.96,4,1,0,0.00
2013-6-2,90.5,81.2,74.3,78.2,75.3,72.1,95,83,65,29.99,29.88,4,1,0,0.00
2013-6-3,91.3,81.2,76.4,77.4,75.2,72.9,93,83,61,29.94,29.86,2,0,0,0.00
2013-6-4,93.0,82.5,75.2,79.3,76.0,72.9,95,82,63,29.97,29.90,4,1,0,0.00
2013-6-5,93.3,83.0,77.4,78.7,75.3,70.7,92,78,62,29.97,29.87,3,1,0,0.00
2013-6-6,90.9,80.2,71.7,77.0,72.4,68.4,92,78,59,29.94,29.70,3,0,0,0.01
2013-6-7,90.4,79.9,73.8,74.3,72.2,69.8,90,78,55,29.91,29.76,3,1,0,0.00
2013-6-8,92.5,82.8,74.6,78.4,75.2,71.8,93,79,59,30.05,29.89,3,1,0,0.33
2013-6-9,77.6,73.9,70.1,75.1,72.6,68.9,97,96,91,30.10,29.95,4,1,0,4.20
2013-6-10,80.2,77.6,72.9,77.8,74.9,71.1,96,91,84,30.12,29.99,2,0,0,0.37
2013-6-11,93.8,82.7,76.1,81.3,77.4,74.9,97,85,66,30.11,30.02,3,1,0,0.00
2013-6-12,97.3,85.2,76.9,81.6,78.2,75.0,96,81,57,30.10,30.00,3,1,0,0.00
2013-6-13,96.4,86.0,80.2,81.7,77.8,72.7,89,78,59,30.04,29.88,3,1,0,0.00
2013-6-14,95.7,86.3,81.7,80.4,77.4,71.0,92,76,54,29.95,29.85,2,0,0,0.00
2013-6-15,94.0,84.4,77.0,81.5,76.1,69.7,89,77,66,30.03,29.93,3,1,0,0.00
2013-6-16,94.5,84.4,76.9,82.1,78.4,74.7,95,83,65,30.07,30.00,3,1,0,0.09
2013-6-17,93.3,84.5,79.5,80.5,77.4,74.6,92,80,64,30.04,29.97,4,1,0,0.00
2013-6-18,93.1,83.4,74.0,79.8,76.0,71.9,95,79,51,30.02,29.91,4,2,0,1.58
2013-6-19,89.3,78.5,72.4,79.8,75.1,71.1,97,90,71,30.04,29.94,1,0,0,1.18
2013-6-20,94.4,82.4,74.6,79.1,75.5,72.7,96,81,55,30.11,30.01,3,0,0,0.01
2013-6-21,93.3,83.2,76.2,78.6,75.5,73.0,92,79,61,30.14,30.05,3,0,0,0.00
2013-6-22,93.2,82.9,75.4,78.1,74.9,72.3,92,78,58,30.13,30.02,2,0,0,0.00
2013-6-23,89.9,81.5,76.3,78.8,75.7,72.8,95,83,67,30.12,30.03,3,1,0,0.23
2013-6-24,95.0,85.8,79.3,79.9,76.4,74.3,85,74,58,30.18,30.09,2,0,0,0.00
2013-6-25,95.8,84.4,77.6,80.9,76.4,74.0,93,78,56,30.14,30.04,2,0,0,0.00
2013-6-26,97.0,85.0,76.2,79.5,76.0,72.8,93,76,55,30.09,29.99,3,0,0,0.00
2013-6-27,94.6,86.4,80.8,81.5,78.4,75.2,87,78,64,30.03,29.91,4,1,0,0.00
2013-6-28,96.9,86.6,74.4,82.9,79.9,70.4,96,82,58,29.93,29.77,4,1,0,1.25
2013-6-29,88.9,81.2,74.5,81.6,76.8,71.1,96,87,70,29.81,29.69,3,0,0,0.34
2013-6-30,88.3,79.1,74.3,77.0,73.9,71.7,95,85,65,29.78,29.70,2,0,0,0.05
2013-7-1,94.4,83.4,74.9,77.2,74.0,69.7,96,75,49,29.91,29.75,3,0,0,0.01
2013-7-2,94.6,83.3,74.6,76.7,73.4,71.0,94,74,53,30.01,29.89,3,0,0,0.00
2013-7-3,82.9,77.6,74.7,77.8,74.4,72.2,95,90,82,30.04,29.96,2,0,0,1.10
2013-7-4,82.5,77.9,74.7,76.8,74.5,71.6,97,90,75,30.04,29.92,4,1,0,1.05
2013-7-5,79.8,75.2,71.5,76.0,72.9,70.0,96,93,84,30.10,30.01,4,0,0,1.19
2013-7-6,78.4,76.8,74.2,76.8,74.6,72.0,95,93,90,30.09,30.00,2,0,0,0.47
2013-7-7,89.8,81.0,76.7,80.5,76.9,74.5,95,88,74,30.13,30.03,2,0,0,0.05
2013-7-8,89.8,79.9,76.1,80.4,76.7,74.6,96,91,71,30.19,30.10,1,0,0,0.16
2013-7-9,95.7,82.7,75.5,79.8,76.3,74.0,96,82,58,30.20,30.09,2,0,0,0.00
2013-7-10,95.8,81.4,75.2,81.4,76.1,73.0,94,85,59,30.12,29.98,4,0,0,0.10
2013-7-11,81.3,77.4,75.0,77.7,74.9,72.9,96,92,83,30.03,29.90,1,0,0,0.33
2013-7-12,94.9,82.0,71.4,79.1,76.0,68.4,96,83,58,29.95,29.85,2,0,0,0.38
2013-7-13,92.0,79.0,71.4,81.8,74.7,69.0,97,87,67,29.99,29.87,2,0,0,0.26
2013-7-14,88.3,79.0,72.4,80.8,74.2,69.6,92,86,69,30.04,29.91,1,0,0,0.13
2013-7-15,92.1,80.9,74.5,78.2,75.5,73.0,96,85,61,30.14,30.03,2,0,0,0.83
2013-7-16,92.8,82.3,75.6,80.2,75.6,73.4,94,81,62,30.19,30.09,3,1,0,0.00
2013-7-17,96.5,84.1,76.2,79.5,76.0,73.3,92,78,55,30.23,30.10,2,0,0,0.00
2013-7-18,95.8,83.0,76.7,80.2,75.1,71.5,88,78,60,30.14,30.01,2,0,0,0.00
2013-7-19,92.2,80.5,75.5,79.3,75.4,72.0,94,85,61,30.09,29.97,3,0,0,0.02
2013-7-20,89.1,81.0,75.8,80.7,77.0,73.6,96,88,74,30.03,29.94,4,1,0,0.34
2013-7-21,89.5,81.3,78.3,78.8,75.6,73.2,92,83,68,30.08,30.00,4,1,0,0.12
2013-7-22,88.3,78.5,72.2,80.2,75.4,70.4,96,90,75,30.10,30.00,3,1,0,1.89
2013-7-23,93.7,81.9,74.2,82.6,77.5,72.3,97,88,66,30.05,29.95,4,1,0,0.14
2013-7-24,91.3,82.7,74.6,81.3,77.3,70.8,96,84,65,29.96,29.88,3,0,0,0.24
2013-7-25,95.7,83.4,74.6,80.9,76.4,72.3,95,81,59,30.00,29.87,2,0,0,0.10
2013-7-26,96.3,85.1,78.2,79.4,76.2,73.3,86,76,54,30.06,29.97,3,0,0,0.00
2013-7-27,87.2,81.4,75.2,79.8,76.3,72.8,95,85,67,29.98,29.92,2,0,0,0.30
2013-7-28,92.5,80.9,74.4,81.4,76.3,72.9,97,87,66,30.01,29.89,4,1,0,0.92
2013-7-29,96.3,84.7,77.3,81.0,78.0,75.2,95,82,59,30.13,29.98,2,0,0,0.00
2013-7-30,97.3,85.7,77.7,80.4,77.9,75.2,95,79,57,30.17,30.08,3,0,0,0.00
2013-7-31,91.3,83.8,80.1,81.9,78.6,74.9,93,85,71,30.11,29.99,2,0,0,0.22
2013-8-1,88.9,80.7,75.6,80.9,77.4,72.8,95,90,75,30.03,29.92,3,0,0,1.64
2013-8-2,95.8,83.6,75.2,82.3,77.9,73.8,96,84,61,30.03,29.92,2,0,0,0.00
2013-8-3,96.5,86.0,80.9,83.3,79.6,77.9,93,82,65,30.07,29.98,3,0,0,0.00
2013-8-4,98.5,86.5,80.6,82.5,78.7,75.2,92,79,55,30.08,29.97,3,0,0,0.00
2013-8-5,96.2,85.8,80.0,81.9,77.6,74.4,88,77,59,30.04,29.94,3,0,0,0.00
2013-8-6,98.5,85.1,79.0,81.9,77.7,73.4,91,79,58,30.03,29.90,2,0,0,0.01
2013-8-7,97.1,85.8,77.7,80.3,77.4,74.1,91,77,53,30.00,29.90,2,0,0,0.00
2013-8-8,97.3,85.6,79.4,81.8,78.7,75.5,92,80,60,29.99,29.92,2,0,0,0.00
2013-8-9,96.4,86.3,79.4,81.2,78.5,75.6,94,79,59,30.06,29.95,3,1,0,0.17
2013-8-10,97.1,85.2,79.3,80.1,76.7,74.1,92,76,56,30.11,30.02,3,0,0,0.00
2013-8-11,97.8,85.8,79.3,80.9,78.1,75.2,93,79,56,30.15,30.08,3,1,0,0.02
2013-8-12,97.8,84.5,78.0,81.8,78.1,75.7,95,82,59,30.13,30.04,3,0,0,0.00
2013-8-13,91.0,81.8,76.4,81.3,77.1,73.5,95,86,68,30.08,29.95,4,0,0,0.47
2013-8-14,93.2,82.3,75.8,80.2,75.5,73.1,94,81,62,29.98,29.89,2,0,0,0.01
2013-8-15,92.8,81.6,75.8,78.8,75.7,73.2,94,83,64,29.98,29.91,3,0,0,0.00
2013-8-16,81.5,78.4,75.2,77.7,75.6,73.4,95,91,85,30.01,29.92,1,0,0,0.51
2013-8-17,76.3,73.7,71.7,75.1,72.5,69.3,97,96,92,30.03,29.93,3,0,0,3.39
2013-8-18,79.1,75.7,72.9,77.3,74.6,72.0,97,96,93,30.07,29.97,2,0,0,1.73
2013-8-19,95.5,83.5,75.7,82.2,77.8,74.5,97,84,62,30.07,29.98,2,0,0,0.01
2013-8-20,86.0,78.9,75.3,80.1,76.0,72.8,96,91,77,30.11,29.99,3,0,0,0.79
2013-8-21,95.7,81.6,74.3,82.0,75.8,72.2,95,84,62,30.15,30.05,2,0,0,0.00
2013-8-22,92.8,82.4,75.4,80.5,75.8,71.9,93,81,64,30.12,29.98,3,0,0,0.00
2013-8-23,80.4,76.7,75.1,76.2,74.5,72.9,95,93,83,30.05,29.95,2,0,0,0.09
2013-8-24,78.8,76.4,72.8,77.3,74.8,71.3,97,95,89,30.15,30.00,2,0,0,2.13
2013-8-25,88.6,79.0,74.2,78.5,75.1,72.7,96,88,70,30.21,30.10,2,0,0,0.27
2013-8-26,91.4,80.5,72.8,73.8,71.2,68.4,95,75,54,30.21,30.10,1,0,0,0.00
2013-8-27,92.1,80.5,72.8,74.9,70.1,67.2,86,72,47,30.13,30.02,1,0,0,0.00
2013-8-28,95.8,82.7,74.3,77.0,72.5,69.8,89,73,48,30.08,30.00,2,0,0,0.00
2013-8-29,95.8,83.7,76.6,77.6,73.8,71.9,89,73,53,30.08,29.97,3,0,0,0.00
2013-8-30,95.6,84.5,77.7,79.5,75.2,72.5,85,74,55,30.03,29.91,3,0,0,0.00
2013-8-31,92.4,82.4,78.3,80.8,76.2,74.2,89,82,68,29.97,29.87,1,0,0,0.00
2013-9-1,96.2,83.0,77.0,82.2,77.1,74.2,96,83,60,29.95,29.86,3,0,0,0.02
2013-9-2,94.5,80.9,75.5,82.2,76.9,72.3,96,89,62,30.01,29.90,3,0,0,0.72
2013-9-3,94.4,81.2,76.0,81.1,77.2,74.0,97,88,63,30.00,29.89,4,0,0,0.01
2013-9-4,95.8,83.2,76.1,80.9,77.2,74.6,96,83,59,30.09,29.97,2,0,0,0.00
2013-9-5,96.2,84.2,77.4,80.2,76.6,73.2,94,79,51,30.13,30.04,3,0,0,0.00
2013-9-6,96.5,84.4,77.9,77.0,74.8,70.5,91,74,51,30.10,29.99,1,0,0,0.00
2013-9-7,95.0,83.5,77.5,79.4,75.0,71.5,89,77,56,30.06,29.98,2,0,0,0.00
2013-9-8,96.3,83.4,76.6,77.9,74.2,70.4,95,76,47,30.01,29.93,2,0,0,0.00
2013-9-9,97.2,84.2,76.3,78.9,73.8,71.0,89,73,44,30.05,29.97,2,0,0,0.00
2013-9-10,94.1,84.4,78.5,79.3,74.7,72.7,86,74,52,30.13,30.03,3,0,0,0.00
2013-9-11,95.9,83.3,75.8,76.1,73.9,71.7,89,75,49,30.13,30.03,2,0,0,0.00
2013-9-12,94.8,83.5,77.6,77.3,74.5,71.8,90,75,54,30.05,29.92,2,0,0,0.00
2013-9-13,88.7,81.1,76.1,75.9,74.3,72.6,91,81,66,29.94,29.82,1,0,0,0.00
2013-9-14,90.1,82.7,76.5,75.5,71.9,67.4,83,70,59,30.00,29.85,1,0,0,0.00
2013-9-15,95.1,83.4,74.9,79.4,73.2,65.8,85,72,57,30.07,29.98,2,0,0,0.00
2013-9-16,94.7,82.8,75.8,81.4,76.2,73.0,94,81,59,30.09,30.00,2,0,0,0.03
2013-9-17,95.2,82.5,75.9,80.5,75.6,72.5,94,81,58,30.08,29.98,2,0,0,0.13
2013-9-18,89.4,80.0,74.5,77.4,74.3,71.7,92,84,64,30.09,30.02,2,0,0,0.03
2013-9-19,91.0,81.4,73.9,77.0,73.4,69.4,89,78,60,30.09,30.00,3,0,0,0.00
2013-9-20,95.3,83.6,75.8,79.8,75.9,71.8,91,79,55,30.03,29.87,4,1,0,0.02
2013-9-21,83.4,78.3,75.8,79.8,76.2,74.1,96,93,83,29.87,29.73,4,0,0,1.22
2013-9-22,78.4,74.5,71.1,75.1,72.6,69.8,96,94,88,29.81,29.73,1,0,0,0.26
2013-9-23,92.9,80.5,73.9,80.7,75.7,72.1,95,86,66,29.90,29.78,2,0,0,0.91
2013-9-24,82.3,77.2,72.4,80.2,75.6,71.1,97,95,89,29.90,29.78,2,0,0,1.55
2013-9-25,89.6,79.6,72.9,79.7,75.1,72.0,97,87,67,29.82,29.75,1,0,0,0.15
2013-9-26,90.4,79.0,73.2,77.7,72.8,67.6,92,82,57,29.96,29.81,2,0,0,0.00
2013-9-27,88.0,76.7,69.4,71.4,67.1,62.3,89,73,53,30.05,29.95,1,0,0,0.00
2013-9-28,88.0,76.6,69.2,69.8,65.7,60.8,86,70,49,30.10,30.01,1,0,0,0.00
2013-9-29,88.2,76.1,67.0,71.2,66.4,59.7,88,73,53,30.06,29.96,2,0,0,0.00
2013-9-30,87.9,76.5,71.1,73.6,70.3,67.5,90,82,60,30.01,29.93,1,0,0,0.02
2013-10-1,89.3,78.3,71.1,76.7,72.7,69.0,93,84,65,30.07,29.98,2,0,0,0.00
2013-10-2,80.8,76.8,73.7,75.9,73.7,71.9,95,90,83,30.08,30.01,2,0,0,0.21
2013-10-3,87.6,79.0,71.9,78.3,74.4,69.1,94,86,73,30.08,29.99,2,0,0,0.00
2013-10-4,91.6,82.4,77.7,79.0,76.2,73.9,92,82,63,30.08,30.00,2,0,0,0.00
2013-10-5,91.2,82.2,76.8,79.6,76.3,73.9,95,83,67,30.06,29.95,3,0,0,0.00
2013-10-6,82.3,76.6,73.3,76.5,73.9,70.6,96,91,80,29.95,29.80,3,0,0,1.04
2013-10-7,80.4,71.1,64.2,72.8,62.1,58.7,96,75,52,29.98,29.82,3,2,0,0.01
2013-10-8,82.4,70.9,61.6,70.1,62.1,56.0,89,75,52,30.00,29.94,2,0,0,0.00
2013-10-9,80.2,72.8,68.0,70.8,67.5,64.7,90,84,71,30.11,29.99,1,0,0,0.00
2013-10-10,85.7,73.4,66.2,71.8,67.7,63.3,93,83,62,30.13,30.01,2,0,0,0.00
2013-10-11,88.1,75.5,69.2,73.0,69.2,67.1,96,82,54,30.08,29.98,2,0,0,0.01
2013-10-12,87.5,76.3,69.2,74.3,70.3,67.1,96,83,57,30.10,30.00,1,0,0,0.00
2013-10-13,85.8,77.1,70.2,71.0,68.3,65.2,91,76,52,30.17,30.06,1,0,0,0.00
2013-10-14,87.5,76.2,69.1,72.2,67.7,64.4,86,76,59,30.12,30.02,2,0,0,0.00
2013-10-15,84.7,73.8,67.0,70.4,66.4,63.7,92,79,59,30.08,29.97,1,0,0,0.00
2013-10-16,86.3,74.4,67.2,72.3,68.3,63.5,94,82,60,30.04,29.94,2,0,0,0.00
2013-10-17,84.8,77.0,71.5,78.2,72.4,68.6,92,86,72,29.98,29.89,3,0,0,0.12
2013-10-18,79.8,72.2,67.5,69.8,67.1,63.7,92,84,71,30.02,29.92,1,0,0,0.01
2013-10-19,72.8,69.6,66.6,68.3,64.5,57.7,91,84,72,30.01,29.91,1,0,0,0.01
2013-10-20,76.9,68.6,60.6,63.3,60.4,57.9,92,76,59,30.05,29.96,1,0,0,0.00
2013-10-21,72.0,68.4,64.9,66.0,62.5,59.1,89,81,77,30.07,29.98,1,0,0,0.02
2013-10-22,73.0,68.2,62.9,66.9,64.3,60.6,95,88,77,29.99,29.89,1,0,0,0.14
2013-10-23,75.5,67.2,61.6,60.9,54.6,48.8,84,65,42,30.12,29.94,2,1,0,0.00
2013-10-24,77.0,64.6,53.8,57.4,51.6,45.1,77,64,40,30.24,30.11,1,0,0,0.00
2013-10-25,69.2,62.2,55.2,58.4,49.2,41.2,82,64,42,30.37,30.19,2,1,0,0.00
2013-10-26,71.0,58.5,51.0,50.5,44.4,39.3,85,61,36,30.32,30.17,1,0,0,0.00
2013-10-27,77.4,63.8,53.7,60.8,56.1,49.6,93,77,53,30.19,30.10,1,0,0,0.00
2013-10-28,81.4,69.0,60.9,65.4,61.3,58.2,92,78,53,30.23,30.11,2,0,0,0.00
2013-10-29,80.4,69.3,62.3,70.0,63.6,60.5,95,83,63,30.28,30.19,2,0,0,0.00
2013-10-30,82.1,72.2,63.8,73.0,68.0,62.0,95,87,72,30.23,30.10,3,0,0,0.01
2013-10-31,85.0,77.4,73.4,75.0,72.0,68.6,90,84,71,30.10,29.90,4,1,0,0.04
2013-11-1,77.3,71.9,65.7,74.8,69.8,61.8,95,93,87,29.90,29.80,3,1,0,0.38
2013-11-2,77.8,67.4,61.5,61.4,56.3,49.7,86,69,45,30.11,29.88,2,0,0,0.00
2013-11-3,70.3,61.1,52.0,51.2,47.9,44.6,82,63,43,30.23,30.11,2,0,0,0.00
2013-11-4,76.5,65.3,57.4,60.7,53.8,43.9,77,67,50,30.29,30.18,1,0,0,0.00
2013-11-5,78.9,66.8,58.7,65.0,56.9,49.3,77,71,59,30.29,30.17,1,0,0,0.00
2013-11-6,77.1,67.9,61.7,68.2,62.5,54.3,94,83,73,30.19,30.08,1,0,0,0.00
2013-11-7,70.0,63.0,53.8,68.6,58.7,46.1,96,86,74,30.23,30.03,3,1,0,0.04
2013-11-8,66.3,56.9,48.6,47.5,43.4,38.5,75,61,43,30.30,30.17,3,1,0,0.00
2013-11-9,74.1,61.7,53.5,62.4,54.1,42.3,93,76,63,30.26,30.17,1,0,0,0.00
2013-11-10,77.2,64.8,57.9,63.1,58.6,54.4,91,81,60,30.26,30.16,1,0,0,0.00
2013-11-11,76.1,63.1,56.5,57.8,54.0,51.2,92,74,44,30.24,30.14,1,0,0,0.00
2013-11-12,71.7,60.8,45.0,59.3,51.7,29.4,92,73,55,30.40,30.15,4,1,0,0.00
2013-11-13,56.2,47.0,37.7,32.3,29.6,26.1,67,52,37,30.49,30.39,3,1,0,0.00
2013-11-14,63.2,53.0,42.5,53.3,42.3,27.9,80,67,49,30.42,30.18,1,0,0,0.00
2013-11-15,70.2,64.0,57.6,66.9,60.3,50.3,93,88,74,30.18,30.01,3,0,0,0.02
2013-11-16,73.2,67.5,62.5,67.8,64.5,60.6,95,90,81,30.13,30.01,2,0,0,0.00
2013-11-17,81.6,73.9,69.1,75.6,71.5,67.3,96,92,81,30.02,29.95,3,1,0,0.01
2013-11-18,74.0,68.2,60.5,72.8,65.4,46.7,97,91,61,30.05,29.94,2,0,0,1.77
2013-11-19,65.8,58.7,53.2,48.8,45.8,42.8,72,62,52,30.13,30.01,2,0,0,0.00
2013-11-20,71.6,60.5,53.0,60.6,53.7,45.0,86,78,66,30.18,30.04,1,0,0,0.00
2013-11-21,67.6,62.6,57.7,62.9,58.4,52.8,93,86,81,30.25,30.17,1,0,0,0.00
2013-11-22,71.8,66.9,63.6,67.0,64.1,61.4,95,91,84,30.25,30.13,2,0,0,0.00
2013-11-23,69.8,63.3,54.8,65.9,60.0,45.2,96,89,70,30.24,30.14,2,0,0,0.00
2013-11-24,57.3,51.5,44.7,45.5,37.0,32.6,71,58,43,30.35,30.24,3,1,0,0.00
2013-11-25,64.2,54.6,47.1,62.7,47.1,34.9,95,76,58,30.31,29.90,4,1,0,0.39
2013-11-26,69.8,58.5,48.3,68.9,57.1,46.3,99,95,92,29.92,29.68,6,1,0,2.74
2013-11-27,50.1,44.7,39.1,46.2,36.7,28.7,94,74,56,30.37,29.88,4,2,0,0.02
2013-11-28,51.9,42.5,33.0,38.0,30.4,25.3,79,63,45,30.48,30.36,2,0,0,0.00
2013-11-29,58.1,47.2,38.6,42.5,37.9,33.1,89,72,44,30.55,30.41,1,0,0,0.00
2013-11-30,63.6,51.4,42.9,50.2,43.9,37.7,92,76,53,30.47,30.28,1,0,0,0.00
2013-12-1,66.5,54.7,47.4,56.2,50.3,45.1,94,86,65,30.29,30.03,1,0,0,0.00
2013-12-2,70.9,59.2,52.5,57.8,54.0,50.7,95,84,59,30.03,29.82,2,0,0,0.00
2013-12-3,78.2,68.7,59.3,68.7,65.0,57.7,97,89,69,29.88,29.81,4,1,0,0.00
2013-12-4,75.3,70.3,65.8,72.5,68.9,64.2,97,95,88,29.99,29.88,2,0,0,1.54
2013-12-5,75.9,72.6,71.0,73.0,71.3,70.1,97,96,90,30.08,29.99,3,1,0,0.00
2013-12-6,80.3,74.0,64.9,74.7,71.9,63.1,97,93,83,30.12,30.00,4,1,0,0.01
2013-12-7,64.7,52.0,49.1,62.3,49.8,47.3,95,92,88,30.27,30.12,2,1,0,0.00
2013-12-8,78.4,63.7,50.0,72.1,61.9,48.9,100,94,79,30.22,30.07,2,0,0,0.01
2013-12-9,72.1,69.0,65.5,71.2,67.8,64.3,97,96,93,30.12,30.05,2,0,0,0.26
2013-12-10,66.4,52.5,44.2,65.5,49.2,40.2,97,89,77,30.35,30.03,3,1,0,0.13
2013-12-11,60.4,50.9,42.3,50.8,43.4,36.4,88,76,57,30.40,30.30,1,0,0,0.00
2013-12-12,59.1,51.9,43.7,46.4,38.2,33.1,75,60,45,30.49,30.36,2,1,0,0.00
2013-12-13,60.9,51.3,38.9,51.9,42.2,26.2,86,71,59,30.38,30.05,1,0,0,0.00
2013-12-14,74.5,66.8,56.2,69.8,63.2,50.6,95,88,78,30.06,29.85,4,1,0,0.02
2013-12-15,60.0,47.6,41.2,56.7,42.6,36.4,92,83,74,30.29,29.92,4,1,0,0.00
2013-12-16,58.8,46.5,37.3,45.5,40.1,34.1,93,80,55,30.35,30.25,1,0,0,0.00
2013-12-17,65.5,52.1,41.8,47.1,43.9,38.4,93,75,46,30.35,30.23,2,0,0,0.00
2013-12-18,63.4,52.0,44.3,46.5,43.3,38.5,91,74,42,30.39,30.27,1,0,0,0.00
2013-12-19,67.0,57.3,45.2,61.2,53.1,40.3,95,86,72,30.29,30.13,2,0,0,0.00
2013-12-20,73.3,66.8,63.3,67.9,63.6,59.9,96,90,83,30.16,30.03,2,0,0,0.00
2013-12-21,74.9,71.5,66.3,71.9,69.8,65.1,97,94,89,30.04,29.90,4,2,0,0.01
2013-12-22,77.5,69.6,56.6,73.3,67.5,55.2,96,93,86,30.11,29.90,5,2,0,0.51
2013-12-23,57.6,52.1,43.6,55.9,49.5,38.6,96,91,82,30.37,30.07,3,1,0,0.59
2013-12-24,54.1,45.0,37.8,39.1,35.4,30.8,88,70,51,30.48,30.35,3,1,0,0.00
2013-12-25,51.7,44.2,36.1,39.6,34.3,29.6,79,68,52,30.41,30.29,1,0,0,0.00
2013-12-26,59.1,50.1,43.8,47.7,42.5,38.3,85,75,64,30.35,30.25,1,0,0,0.00
2013-12-27,59.0,53.0,46.4,49.3,43.7,39.2,81,71,63,30.38,30.27,1,0,0,0.00
2013-12-28,57.9,52.1,49.8,57.0,50.2,44.4,97,93,68,30.28,29.87,2,0,0,2.21
2013-12-29,57.8,51.3,48.5,53.3,49.3,46.6,97,93,84,30.13,29.92,1,0,0,0.01
2013-12-30,56.9,51.4,44.3,52.7,49.2,43.0,96,92,80,30.29,30.13,0,0,0,0.00
2013-12-31,53.2,48.5,46.0,51.1,45.0,42.2,93,88,82,30.42,30.27,1,0,0,0.01
2014-1-1,60.0,52.6,46.7,56.8,50.4,43.5,95,92,87,30.34,30.03,0,0,0,0.10
2014-1-2,58.6,52.6,39.3,57.0,49.0,33.0,97,88,70,30.27,29.92,4,1,0,0.21